Terminal Aerodrome Forecast
Issued by NWS

Current Version | Previous Version | Graphics & Text | Print | Product List | Glossary On
Versions: 1 2 3 4 5 6 7 8 9 10 11 12 13 14 15 16 17 18 19 20 21
000
FTUS41 KILN 272200 AAC
TAFLUK
TAF AMD
KLUK 272230Z 2723/2818 23004KT 4SM -RA BR OVC012
      TEMPO 2723/2801 OVC008
     FM280100 25005KT 4SM -RA BR OVC008
     FM280700 34006KT 4SM -RA BR OVC012
     FM281400 01007KT P6SM VCSH OVC019=

USA.gov is the U.S. government's official web portal to all federal, state and local government web resources and services.